sensor_id;sensor_type;location;lat;lon;timestamp;temperature;humidity
34985;DHT22;21190;58.750;17.004;2024-01-16T00:02:04;-12.10;99.90
34985;DHT22;21190;58.750;17.004;2024-01-16T00:04:32;-12.00;99.90
34985;DHT22;21190;58.750;17.004;2024-01-16T00:06:59;-12.10;99.90
34985;DHT22;21190;58.750;17.004;2024-01-16T00:09:29;-12.10;99.90
34985;DHT22;21190;58.750;17.004;2024-01-16T00:11:56;-12.20;99.90
34985;DHT22;21190;58.750;17.004;2024-01-16T00:14:23;-12.30;99.90
34985;DHT22;21190;58.750;17.004;2024-01-16T00:16:50;-12.30;99.90
34985;DHT22;21190;58.750;17.004;2024-01-16T00:19:17;-12.30;99.90
34985;DHT22;21190;58.750;17.004;2024-01-16T00:21:45;-12.30;99.90
34985;DHT22;21190;58.750;17.004;2024-01-16T00:24:14;-12.30;99.90
34985;DHT22;21190;58.750;17.004;2024-01-16T00:26:42;-12.30;99.90
34985;DHT22;21190;58.750;17.004;2024-01-16T00:29:09;-12.40;99.90
34985;DHT22;21190;58.750;17.004;2024-01-16T00:31:39;-12.40;99.90
34985;DHT22;21190;58.750;17.004;2024-01-16T00:34:06;-12.40;99.90
34985;DHT22;21190;58.750;17.004;2024-01-16T00:36:33;-12.40;99.90
34985;DHT22;21190;58.750;17.004;2024-01-16T00:39:00;-12.50;99.90
34985;DHT22;21190;58.750;17.004;2024-01-16T00:41:27;-12.50;99.90
34985;DHT22;21190;58.750;17.004;2024-01-16T00:43:54;-12.50;99.90
34985;DHT22;21190;58.750;17.004;2024-01-16T00:46:21;-12.70;99.90
34985;DHT22;21190;58.750;17.004;2024-01-16T00:48:48;-12.70;99.90
34985;DHT22;21190;58.750;17.004;2024-01-16T00:51:15;-12.70;99.90
34985;DHT22;21190;58.750;17.004;2024-01-16T00:53:43;-12.80;99.90
34985;DHT22;21190;58.750;17.004;2024-01-16T00:56:11;-12.70;99.90
34985;DHT22;21190;58.750;17.004;2024-01-16T00:58:39;-12.80;99.90
34985;DHT22;21190;58.750;17.004;2024-01-16T01:01:06;-12.70;99.90
34985;DHT22;21190;58.750;17.004;2024-01-16T01:03:34;-12.80;99.90
34985;DHT22;21190;58.750;17.004;2024-01-16T01:06:02;-12.90;99.90
34985;DHT22;21190;58.750;17.004;2024-01-16T01:08:29;-12.90;99.90
34985;DHT22;21190;58.750;17.004;2024-01-16T01:10:56;-12.90;99.90
34985;DHT22;21190;58.750;17.004;2024-01-16T01:13:23;-12.90;99.90
34985;DHT22;21190;58.750;17.004;2024-01-16T01:15:52;-13.00;99.90
34985;DHT22;21190;58.750;17.004;2024-01-16T01:18:19;-13.00;99.90
34985;DHT22;21190;58.750;17.004;2024-01-16T01:20:47;-13.00;99.90
34985;DHT22;21190;58.750;17.004;2024-01-16T01:23:14;-13.10;99.90
34985;DHT22;21190;58.750;17.004;2024-01-16T01:25:41;-13.10;99.90
34985;DHT22;21190;58.750;17.004;2024-01-16T01:28:08;-13.20;99.90
34985;DHT22;21190;58.750;17.004;2024-01-16T01:30:35;-13.20;99.90
34985;DHT22;21190;58.750;17.004;2024-01-16T01:33:03;-13.20;99.90
34985;DHT22;21190;58.750;17.004;2024-01-16T01:35:30;-13.20;99.90
34985;DHT22;21190;58.750;17.004;2024-01-16T01:37:57;-13.20;99.90
34985;DHT22;21190;58.750;17.004;2024-01-16T01:40:24;-13.40;99.90
34985;DHT22;21190;58.750;17.004;2024-01-16T01:42:51;-13.40;99.90
34985;DHT22;21190;58.750;17.004;2024-01-16T01:45:18;-13.50;99.90
34985;DHT22;21190;58.750;17.004;2024-01-16T01:47:45;-13.50;99.90
34985;DHT22;21190;58.750;17.004;2024-01-16T01:50:13;-13.60;99.90
34985;DHT22;21190;58.750;17.004;2024-01-16T01:52:41;-13.70;99.90
34985;DHT22;21190;58.750;17.004;2024-01-16T01:55:11;-13.80;99.90
34985;DHT22;21190;58.750;17.004;2024-01-16T01:57:39;-13.80;99.90
34985;DHT22;21190;58.750;17.004;2024-01-16T02:00:06;-13.80;99.90
34985;DHT22;21190;58.750;17.004;2024-01-16T02:02:34;-13.80;99.90
34985;DHT22;21190;58.750;17.004;2024-01-16T02:05:01;-13.80;99.90
34985;DHT22;21190;58.750;17.004;2024-01-16T02:07:31;-13.90;99.90
34985;DHT22;21190;58.750;17.004;2024-01-16T02:10:00;-13.90;99.90
34985;DHT22;21190;58.750;17.004;2024-01-16T02:12:27;-13.90;99.90
34985;DHT22;21190;58.750;17.004;2024-01-16T02:14:54;-13.90;99.90
34985;DHT22;21190;58.750;17.004;2024-01-16T02:17:21;-14.00;99.90
34985;DHT22;21190;58.750;17.004;2024-01-16T02:19:48;-14.00;99.90
34985;DHT22;21190;58.750;17.004;2024-01-16T02:22:19;-14.00;99.90
34985;DHT22;21190;58.750;17.004;2024-01-16T02:24:49;-14.10;99.90
34985;DHT22;21190;58.750;17.004;2024-01-16T02:27:16;-14.20;99.90
34985;DHT22;21190;58.750;17.004;2024-01-16T02:29:43;-14.30;99.90
34985;DHT22;21190;58.750;17.004;2024-01-16T02:32:12;-14.40;99.90
34985;DHT22;21190;58.750;17.004;2024-01-16T02:34:40;-14.40;99.90
34985;DHT22;21190;58.750;17.004;2024-01-16T02:37:08;-14.30;99.90
34985;DHT22;21190;58.750;17.004;2024-01-16T02:39:35;-14.30;99.90
34985;DHT22;21190;58.750;17.004;2024-01-16T02:42:02;-14.40;99.90
34985;DHT22;21190;58.750;17.004;2024-01-16T02:44:30;-14.30;99.90
34985;DHT22;21190;58.750;17.004;2024-01-16T02:46:57;-14.30;99.90
34985;DHT22;21190;58.750;17.004;2024-01-16T02:49:24;-14.30;99.90
34985;DHT22;21190;58.750;17.004;2024-01-16T02:51:53;-14.30;99.90
34985;DHT22;21190;58.750;17.004;2024-01-16T02:54:22;-14.40;99.90
34985;DHT22;21190;58.750;17.004;2024-01-16T02:56:49;-14.40;99.90
34985;DHT22;21190;58.750;17.004;2024-01-16T02:59:17;-14.50;99.90
34985;DHT22;21190;58.750;17.004;2024-01-16T03:01:44;-14.60;99.90
34985;DHT22;21190;58.750;17.004;2024-01-16T03:04:11;-14.60;99.90
34985;DHT22;21190;58.750;17.004;2024-01-16T03:06:38;-14.60;99.90
34985;DHT22;21190;58.750;17.004;2024-01-16T03:09:05;-14.60;99.90
34985;DHT22;21190;58.750;17.004;2024-01-16T03:11:33;-14.70;99.90
34985;DHT22;21190;58.750;17.004;2024-01-16T03:14:00;-14.70;99.90
34985;DHT22;21190;58.750;17.004;2024-01-16T03:16:28;-14.70;99.90
34985;DHT22;21190;58.750;17.004;2024-01-16T03:18:55;-14.80;99.90
34985;DHT22;21190;58.750;17.004;2024-01-16T03:21:22;-14.80;99.90
34985;DHT22;21190;58.750;17.004;2024-01-16T03:23:50;-14.90;99.90
34985;DHT22;21190;58.750;17.004;2024-01-16T03:26:17;-14.80;99.90
34985;DHT22;21190;58.750;17.004;2024-01-16T03:28:44;-14.70;99.90
34985;DHT22;21190;58.750;17.004;2024-01-16T03:31:13;-14.80;99.90
34985;DHT22;21190;58.750;17.004;2024-01-16T03:33:41;-14.70;99.90
34985;DHT22;21190;58.750;17.004;2024-01-16T03:36:10;-14.60;99.90
34985;DHT22;21190;58.750;17.004;2024-01-16T03:38:42;-14.60;99.90
34985;DHT22;21190;58.750;17.004;2024-01-16T03:41:11;-14.60;99.90
34985;DHT22;21190;58.750;17.004;2024-01-16T03:43:39;-14.70;99.90
34985;DHT22;21190;58.750;17.004;2024-01-16T03:46:07;-14.70;99.90
34985;DHT22;21190;58.750;17.004;2024-01-16T03:48:34;-14.70;99.90
34985;DHT22;21190;58.750;17.004;2024-01-16T03:51:01;-14.70;99.90
34985;DHT22;21190;58.750;17.004;2024-01-16T03:53:29;-14.70;99.90
34985;DHT22;21190;58.750;17.004;2024-01-16T03:55:56;-14.70;99.90
34985;DHT22;21190;58.750;17.004;2024-01-16T03:58:23;-14.70;99.90
34985;DHT22;21190;58.750;17.004;2024-01-16T04:00:50;-14.70;99.90
34985;DHT22;21190;58.750;17.004;2024-01-16T04:03:18;-14.80;99.90
34985;DHT22;21190;58.750;17.004;2024-01-16T04:05:45;-14.80;99.90
34985;DHT22;21190;58.750;17.004;2024-01-16T04:08:12;-14.90;99.90
34985;DHT22;21190;58.750;17.004;2024-01-16T04:10:40;-14.80;99.90
34985;DHT22;21190;58.750;17.004;2024-01-16T04:13:07;-14.80;99.90
34985;DHT22;21190;58.750;17.004;2024-01-16T04:15:40;-14.70;99.90
34985;DHT22;21190;58.750;17.004;2024-01-16T04:18:07;-14.80;99.90
34985;DHT22;21190;58.750;17.004;2024-01-16T04:20:35;-14.80;99.90
34985;DHT22;21190;58.750;17.004;2024-01-16T04:23:03;-14.70;99.90
34985;DHT22;21190;58.750;17.004;2024-01-16T04:25:30;-14.70;99.90
34985;DHT22;21190;58.750;17.004;2024-01-16T04:27:57;-14.70;99.90
34985;DHT22;21190;58.750;17.004;2024-01-16T04:30:28;-14.80;99.90
34985;DHT22;21190;58.750;17.004;2024-01-16T04:32:55;-14.70;99.90
34985;DHT22;21190;58.750;17.004;2024-01-16T04:35:23;-14.70;99.90
34985;DHT22;21190;58.750;17.004;2024-01-16T04:37:50;-14.80;99.90
34985;DHT22;21190;58.750;17.004;2024-01-16T04:40:17;-14.80;99.90
34985;DHT22;21190;58.750;17.004;2024-01-16T04:42:44;-14.70;99.90
34985;DHT22;21190;58.750;17.004;2024-01-16T04:45:11;-14.80;99.90
34985;DHT22;21190;58.750;17.004;2024-01-16T04:47:38;-14.70;99.90
34985;DHT22;21190;58.750;17.004;2024-01-16T04:50:05;-14.80;99.90
34985;DHT22;21190;58.750;17.004;2024-01-16T04:52:32;-14.80;99.90
34985;DHT22;21190;58.750;17.004;2024-01-16T04:54:59;-14.90;99.90
34985;DHT22;21190;58.750;17.004;2024-01-16T04:57:26;-14.90;99.90
34985;DHT22;21190;58.750;17.004;2024-01-16T04:59:53;-14.80;99.90
34985;DHT22;21190;58.750;17.004;2024-01-16T05:02:20;-14.90;99.90
34985;DHT22;21190;58.750;17.004;2024-01-16T05:04:47;-15.00;99.90
34985;DHT22;21190;58.750;17.004;2024-01-16T05:07:18;-15.00;99.90
34985;DHT22;21190;58.750;17.004;2024-01-16T05:09:48;-14.90;99.90
34985;DHT22;21190;58.750;17.004;2024-01-16T05:12:16;-14.90;99.90
34985;DHT22;21190;58.750;17.004;2024-01-16T05:14:43;-14.90;99.90
34985;DHT22;21190;58.750;17.004;2024-01-16T05:17:10;-14.90;99.90
34985;DHT22;21190;58.750;17.004;2024-01-16T05:19:37;-14.90;99.90
34985;DHT22;21190;58.750;17.004;2024-01-16T05:22:04;-15.00;99.90
34985;DHT22;21190;58.750;17.004;2024-01-16T05:24:31;-15.00;99.90
34985;DHT22;21190;58.750;17.004;2024-01-16T05:26:58;-15.00;99.90
34985;DHT22;21190;58.750;17.004;2024-01-16T05:29:25;-15.00;99.90
34985;DHT22;21190;58.750;17.004;2024-01-16T05:31:51;-15.10;99.90
34985;DHT22;21190;58.750;17.004;2024-01-16T05:34:19;-15.10;99.90
34985;DHT22;21190;58.750;17.004;2024-01-16T05:36:46;-15.10;99.90
34985;DHT22;21190;58.750;17.004;2024-01-16T05:39:13;-15.10;99.90
34985;DHT22;21190;58.750;17.004;2024-01-16T05:41:40;-15.10;99.90
34985;DHT22;21190;58.750;17.004;2024-01-16T05:44:07;-15.00;99.90
34985;DHT22;21190;58.750;17.004;2024-01-16T05:46:34;-15.10;99.90
34985;DHT22;21190;58.750;17.004;2024-01-16T05:49:01;-15.20;99.90
34985;DHT22;21190;58.750;17.004;2024-01-16T05:51:29;-15.20;99.90
34985;DHT22;21190;58.750;17.004;2024-01-16T05:53:56;-15.20;99.90
34985;DHT22;21190;58.750;17.004;2024-01-16T05:56:23;-15.30;99.90
34985;DHT22;21190;58.750;17.004;2024-01-16T05:58:50;-15.30;99.90
34985;DHT22;21190;58.750;17.004;2024-01-16T06:01:19;-15.30;99.90
34985;DHT22;21190;58.750;17.004;2024-01-16T06:03:46;-15.30;99.90
34985;DHT22;21190;58.750;17.004;2024-01-16T06:06:16;-15.30;99.90
34985;DHT22;21190;58.750;17.004;2024-01-16T06:08:43;-15.40;99.90
34985;DHT22;21190;58.750;17.004;2024-01-16T06:11:11;-15.30;99.90
34985;DHT22;21190;58.750;17.004;2024-01-16T06:13:41;-15.20;99.90
34985;DHT22;21190;58.750;17.004;2024-01-16T06:16:08;-15.30;99.90
34985;DHT22;21190;58.750;17.004;2024-01-16T06:18:35;-15.30;99.90
34985;DHT22;21190;58.750;17.004;2024-01-16T06:21:03;-15.20;99.90
34985;DHT22;21190;58.750;17.004;2024-01-16T06:23:30;-15.20;99.90
34985;DHT22;21190;58.750;17.004;2024-01-16T06:25:59;-15.20;99.90
34985;DHT22;21190;58.750;17.004;2024-01-16T06:28:26;-15.20;99.90
34985;DHT22;21190;58.750;17.004;2024-01-16T06:30:53;-15.10;99.90
34985;DHT22;21190;58.750;17.004;2024-01-16T06:33:20;-15.20;99.90
34985;DHT22;21190;58.750;17.004;2024-01-16T06:35:47;-15.20;99.90
34985;DHT22;21190;58.750;17.004;2024-01-16T06:38:19;-15.30;99.90
34985;DHT22;21190;58.750;17.004;2024-01-16T06:40:46;-15.30;99.90
34985;DHT22;21190;58.750;17.004;2024-01-16T06:43:14;-15.40;99.90
34985;DHT22;21190;58.750;17.004;2024-01-16T06:45:43;-15.30;99.90
34985;DHT22;21190;58.750;17.004;2024-01-16T06:48:10;-15.20;99.90
34985;DHT22;21190;58.750;17.004;2024-01-16T06:50:38;-15.30;99.90
34985;DHT22;21190;58.750;17.004;2024-01-16T06:53:05;-15.30;99.90
34985;DHT22;21190;58.750;17.004;2024-01-16T06:55:33;-15.30;99.90
34985;DHT22;21190;58.750;17.004;2024-01-16T06:58:00;-15.30;99.90
34985;DHT22;21190;58.750;17.004;2024-01-16T07:00:27;-15.40;99.90
34985;DHT22;21190;58.750;17.004;2024-01-16T07:02:54;-15.50;99.90
34985;DHT22;21190;58.750;17.004;2024-01-16T07:05:21;-15.60;99.90
34985;DHT22;21190;58.750;17.004;2024-01-16T07:07:49;-15.70;99.90
34985;DHT22;21190;58.750;17.004;2024-01-16T07:10:16;-15.70;99.90
34985;DHT22;21190;58.750;17.004;2024-01-16T07:12:47;-15.70;99.90
34985;DHT22;21190;58.750;17.004;2024-01-16T07:15:16;-15.80;99.90
34985;DHT22;21190;58.750;17.004;2024-01-16T07:17:43;-15.80;99.90
34985;DHT22;21190;58.750;17.004;2024-01-16T07:20:10;-15.80;99.90
34985;DHT22;21190;58.750;17.004;2024-01-16T07:22:38;-15.90;99.90
34985;DHT22;21190;58.750;17.004;2024-01-16T07:25:07;-16.00;99.90
34985;DHT22;21190;58.750;17.004;2024-01-16T07:27:34;-16.10;99.90
34985;DHT22;21190;58.750;17.004;2024-01-16T07:30:04;-16.10;99.90
34985;DHT22;21190;58.750;17.004;2024-01-16T07:32:31;-16.10;99.90
34985;DHT22;21190;58.750;17.004;2024-01-16T07:34:59;-16.20;99.90
34985;DHT22;21190;58.750;17.004;2024-01-16T07:37:26;-16.20;99.90
34985;DHT22;21190;58.750;17.004;2024-01-16T07:39:53;-16.20;99.90
34985;DHT22;21190;58.750;17.004;2024-01-16T07:42:20;-16.20;99.90
34985;DHT22;21190;58.750;17.004;2024-01-16T07:44:47;-16.10;99.90
34985;DHT22;21190;58.750;17.004;2024-01-16T07:47:14;-16.10;99.90
34985;DHT22;21190;58.750;17.004;2024-01-16T07:49:43;-16.10;99.90
34985;DHT22;21190;58.750;17.004;2024-01-16T07:52:11;-16.10;99.90
34985;DHT22;21190;58.750;17.004;2024-01-16T07:54:39;-16.20;99.90
34985;DHT22;21190;58.750;17.004;2024-01-16T07:57:06;-16.20;99.90
34985;DHT22;21190;58.750;17.004;2024-01-16T07:59:33;-16.20;99.90
34985;DHT22;21190;58.750;17.004;2024-01-16T08:02:00;-16.20;99.90
34985;DHT22;21190;58.750;17.004;2024-01-16T08:04:27;-16.20;99.90
34985;DHT22;21190;58.750;17.004;2024-01-16T08:06:54;-16.10;99.90
34985;DHT22;21190;58.750;17.004;2024-01-16T08:09:21;-16.00;99.90
34985;DHT22;21190;58.750;17.004;2024-01-16T08:11:48;-16.00;99.90
34985;DHT22;21190;58.750;17.004;2024-01-16T08:14:16;-16.10;99.90
34985;DHT22;21190;58.750;17.004;2024-01-16T08:16:43;-16.10;99.90
34985;DHT22;21190;58.750;17.004;2024-01-16T08:19:10;-16.10;99.90
34985;DHT22;21190;58.750;17.004;2024-01-16T08:21:37;-16.10;99.90
34985;DHT22;21190;58.750;17.004;2024-01-16T08:24:04;-16.00;99.90
34985;DHT22;21190;58.750;17.004;2024-01-16T08:26:31;-15.80;99.90
34985;DHT22;21190;58.750;17.004;2024-01-16T08:28:58;-15.80;99.90
34985;DHT22;21190;58.750;17.004;2024-01-16T08:31:25;-15.80;99.90
34985;DHT22;21190;58.750;17.004;2024-01-16T08:33:52;-15.80;99.90
34985;DHT22;21190;58.750;17.004;2024-01-16T08:36:23;-15.70;99.90
34985;DHT22;21190;58.750;17.004;2024-01-16T08:38:50;-15.70;99.90
34985;DHT22;21190;58.750;17.004;2024-01-16T08:41:17;-15.60;99.90
34985;DHT22;21190;58.750;17.004;2024-01-16T08:43:44;-15.60;99.90
34985;DHT22;21190;58.750;17.004;2024-01-16T08:46:11;-15.50;99.90
34985;DHT22;21190;58.750;17.004;2024-01-16T08:48:38;-15.50;99.90
34985;DHT22;21190;58.750;17.004;2024-01-16T08:51:10;-15.40;99.90
34985;DHT22;21190;58.750;17.004;2024-01-16T08:53:38;-15.40;99.90
34985;DHT22;21190;58.750;17.004;2024-01-16T08:56:05;-15.40;99.90
34985;DHT22;21190;58.750;17.004;2024-01-16T08:58:35;-15.20;99.90
34985;DHT22;21190;58.750;17.004;2024-01-16T09:01:07;-15.20;99.90
34985;DHT22;21190;58.750;17.004;2024-01-16T09:03:34;-15.20;99.90
34985;DHT22;21190;58.750;17.004;2024-01-16T09:06:02;-15.20;99.90
34985;DHT22;21190;58.750;17.004;2024-01-16T09:08:30;-15.10;99.90
34985;DHT22;21190;58.750;17.004;2024-01-16T09:10:57;-15.10;99.90
34985;DHT22;21190;58.750;17.004;2024-01-16T09:13:24;-15.00;99.90
34985;DHT22;21190;58.750;17.004;2024-01-16T09:15:51;-15.00;99.90
34985;DHT22;21190;58.750;17.004;2024-01-16T09:18:18;-14.90;99.90
34985;DHT22;21190;58.750;17.004;2024-01-16T09:20:45;-14.90;99.90
34985;DHT22;21190;58.750;17.004;2024-01-16T09:23:13;-14.90;99.90
34985;DHT22;21190;58.750;17.004;2024-01-16T09:25:41;-14.90;99.90
34985;DHT22;21190;58.750;17.004;2024-01-16T09:28:11;-14.80;99.90
34985;DHT22;21190;58.750;17.004;2024-01-16T09:30:39;-14.70;99.90
34985;DHT22;21190;58.750;17.004;2024-01-16T09:33:05;-14.70;99.90
34985;DHT22;21190;58.750;17.004;2024-01-16T09:35:34;-14.70;99.90
34985;DHT22;21190;58.750;17.004;2024-01-16T09:38:01;-14.70;99.90
34985;DHT22;21190;58.750;17.004;2024-01-16T09:40:28;-14.80;99.90
34985;DHT22;21190;58.750;17.004;2024-01-16T09:42:55;-14.80;99.90
34985;DHT22;21190;58.750;17.004;2024-01-16T09:45:24;-14.80;99.90
34985;DHT22;21190;58.750;17.004;2024-01-16T09:47:52;-14.80;99.90
34985;DHT22;21190;58.750;17.004;2024-01-16T09:50:20;-14.80;99.90
34985;DHT22;21190;58.750;17.004;2024-01-16T09:52:48;-14.70;99.90
34985;DHT22;21190;58.750;17.004;2024-01-16T09:55:16;-14.60;99.90
34985;DHT22;21190;58.750;17.004;2024-01-16T09:57:45;-14.60;99.90
34985;DHT22;21190;58.750;17.004;2024-01-16T10:00:13;-14.60;99.90
34985;DHT22;21190;58.750;17.004;2024-01-16T10:02:41;-14.70;99.90
34985;DHT22;21190;58.750;17.004;2024-01-16T10:05:12;-14.60;99.90
34985;DHT22;21190;58.750;17.004;2024-01-16T10:07:41;-14.60;99.90
34985;DHT22;21190;58.750;17.004;2024-01-16T10:10:10;-14.50;99.90
34985;DHT22;21190;58.750;17.004;2024-01-16T10:12:39;-14.40;99.90
34985;DHT22;21190;58.750;17.004;2024-01-16T10:15:07;-14.40;99.90
34985;DHT22;21190;58.750;17.004;2024-01-16T10:17:39;-14.30;99.90
34985;DHT22;21190;58.750;17.004;2024-01-16T10:20:10;-14.30;99.90
34985;DHT22;21190;58.750;17.004;2024-01-16T10:22:53;-14.30;99.90
34985;DHT22;21190;58.750;17.004;2024-01-16T10:25:20;-14.20;99.90
34985;DHT22;21190;58.750;17.004;2024-01-16T10:27:49;-14.10;99.90
34985;DHT22;21190;58.750;17.004;2024-01-16T10:30:29;-14.10;99.90
34985;DHT22;21190;58.750;17.004;2024-01-16T10:33:15;-14.10;99.90
34985;DHT22;21190;58.750;17.004;2024-01-16T10:35:43;-14.00;99.90
34985;DHT22;21190;58.750;17.004;2024-01-16T10:38:20;-13.90;99.90
34985;DHT22;21190;58.750;17.004;2024-01-16T10:40:48;-13.80;99.90
34985;DHT22;21190;58.750;17.004;2024-01-16T10:43:30;-13.80;99.90
34985;DHT22;21190;58.750;17.004;2024-01-16T10:46:26;-13.80;99.90
34985;DHT22;21190;58.750;17.004;2024-01-16T10:49:03;-13.80;99.90
34985;DHT22;21190;58.750;17.004;2024-01-16T10:51:31;-13.70;99.90
34985;DHT22;21190;58.750;17.004;2024-01-16T10:54:05;-13.80;99.90
34985;DHT22;21190;58.750;17.004;2024-01-16T10:56:32;-13.70;99.90
34985;DHT22;21190;58.750;17.004;2024-01-16T10:59:16;-13.70;99.90
34985;DHT22;21190;58.750;17.004;2024-01-16T11:01:48;-13.60;99.90
34985;DHT22;21190;58.750;17.004;2024-01-16T11:04:16;-13.50;99.90
34985;DHT22;21190;58.750;17.004;2024-01-16T11:06:44;-13.40;99.90
34985;DHT22;21190;58.750;17.004;2024-01-16T11:09:13;-13.30;99.90
34985;DHT22;21190;58.750;17.004;2024-01-16T11:11:44;-13.30;99.90
34985;DHT22;21190;58.750;17.004;2024-01-16T11:14:16;-13.20;99.90
34985;DHT22;21190;58.750;17.004;2024-01-16T11:16:46;-13.10;99.90
34985;DHT22;21190;58.750;17.004;2024-01-16T11:19:14;-13.00;99.90
34985;DHT22;21190;58.750;17.004;2024-01-16T11:22:03;-12.90;99.90
34985;DHT22;21190;58.750;17.004;2024-01-16T11:24:32;-12.90;99.90
34985;DHT22;21190;58.750;17.004;2024-01-16T11:26:58;-12.80;99.90
34985;DHT22;21190;58.750;17.004;2024-01-16T11:31:56;-12.70;99.90
34985;DHT22;21190;58.750;17.004;2024-01-16T11:37:14;-12.60;99.90
34985;DHT22;21190;58.750;17.004;2024-01-16T11:39:42;-12.60;99.90
34985;DHT22;21190;58.750;17.004;2024-01-16T11:42:09;-12.60;99.90
34985;DHT22;21190;58.750;17.004;2024-01-16T11:47:07;-12.40;99.90
34985;DHT22;21190;58.750;17.004;2024-01-16T11:49:37;-12.30;99.90
34985;DHT22;21190;58.750;17.004;2024-01-16T11:52:05;-12.30;99.90
34985;DHT22;21190;58.750;17.004;2024-01-16T11:54:33;-12.30;99.90
34985;DHT22;21190;58.750;17.004;2024-01-16T11:57:25;-12.20;99.90
34985;DHT22;21190;58.750;17.004;2024-01-16T12:00:05;-12.10;99.90
34985;DHT22;21190;58.750;17.004;2024-01-16T12:05:11;-11.80;99.90
34985;DHT22;21190;58.750;17.004;2024-01-16T12:07:49;-11.70;99.90
34985;DHT22;21190;58.750;17.004;2024-01-16T12:10:18;-11.60;99.90
34985;DHT22;21190;58.750;17.004;2024-01-16T12:12:46;-11.60;99.90
34985;DHT22;21190;58.750;17.004;2024-01-16T12:15:15;-11.70;99.90
34985;DHT22;21190;58.750;17.004;2024-01-16T12:17:55;-11.70;99.90
34985;DHT22;21190;58.750;17.004;2024-01-16T12:20:24;-11.80;99.90
34985;DHT22;21190;58.750;17.004;2024-01-16T12:22:59;-11.80;99.90
34985;DHT22;21190;58.750;17.004;2024-01-16T12:25:28;-11.70;99.90
34985;DHT22;21190;58.750;17.004;2024-01-16T12:28:15;-11.70;99.90
34985;DHT22;21190;58.750;17.004;2024-01-16T12:30:59;-11.70;99.90
34985;DHT22;21190;58.750;17.004;2024-01-16T12:33:27;-11.70;99.90
34985;DHT22;21190;58.750;17.004;2024-01-16T12:36:03;-11.60;99.90
34985;DHT22;21190;58.750;17.004;2024-01-16T12:38:32;-11.70;99.90
34985;DHT22;21190;58.750;17.004;2024-01-16T12:40:59;-11.60;99.90
34985;DHT22;21190;58.750;17.004;2024-01-16T12:43:29;-11.60;99.90
34985;DHT22;21190;58.750;17.004;2024-01-16T12:45:57;-11.60;99.90
34985;DHT22;21190;58.750;17.004;2024-01-16T12:48:28;-11.50;99.90
34985;DHT22;21190;58.750;17.004;2024-01-16T12:51:04;-11.40;99.90
34985;DHT22;21190;58.750;17.004;2024-01-16T12:53:34;-11.40;99.90
34985;DHT22;21190;58.750;17.004;2024-01-16T12:56:04;-11.30;99.90
34985;DHT22;21190;58.750;17.004;2024-01-16T12:58:35;-11.20;99.90
34985;DHT22;21190;58.750;17.004;2024-01-16T13:01:27;-11.20;99.90
34985;DHT22;21190;58.750;17.004;2024-01-16T13:04:05;-11.20;99.90
34985;DHT22;21190;58.750;17.004;2024-01-16T13:06:33;-11.20;99.90
34985;DHT22;21190;58.750;17.004;2024-01-16T13:09:09;-11.20;99.90
34985;DHT22;21190;58.750;17.004;2024-01-16T13:11:51;-11.20;99.90
34985;DHT22;21190;58.750;17.004;2024-01-16T13:14:19;-11.10;99.90
34985;DHT22;21190;58.750;17.004;2024-01-16T13:16:50;-11.10;99.90
34985;DHT22;21190;58.750;17.004;2024-01-16T13:19:21;-11.00;99.90
34985;DHT22;21190;58.750;17.004;2024-01-16T13:21:49;-11.00;99.90
34985;DHT22;21190;58.750;17.004;2024-01-16T13:24:17;-10.90;99.90
34985;DHT22;21190;58.750;17.004;2024-01-16T13:26:45;-10.90;99.90
34985;DHT22;21190;58.750;17.004;2024-01-16T13:29:12;-10.90;99.90
34985;DHT22;21190;58.750;17.004;2024-01-16T13:31:39;-10.90;99.90
34985;DHT22;21190;58.750;17.004;2024-01-16T13:34:07;-10.90;99.90
34985;DHT22;21190;58.750;17.004;2024-01-16T13:36:35;-10.80;99.90
34985;DHT22;21190;58.750;17.004;2024-01-16T13:39:05;-10.90;99.90
34985;DHT22;21190;58.750;17.004;2024-01-16T13:41:40;-10.90;99.90
34985;DHT22;21190;58.750;17.004;2024-01-16T13:44:08;-11.00;99.90
34985;DHT22;21190;58.750;17.004;2024-01-16T13:46:35;-11.00;99.90
34985;DHT22;21190;58.750;17.004;2024-01-16T13:49:22;-11.10;99.90
34985;DHT22;21190;58.750;17.004;2024-01-16T13:51:50;-11.20;99.90
34985;DHT22;21190;58.750;17.004;2024-01-16T13:54:18;-11.30;99.90
34985;DHT22;21190;58.750;17.004;2024-01-16T13:56:45;-11.40;99.90
34985;DHT22;21190;58.750;17.004;2024-01-16T13:59:31;-11.40;99.90
34985;DHT22;21190;58.750;17.004;2024-01-16T14:01:59;-11.50;99.90
34985;DHT22;21190;58.750;17.004;2024-01-16T14:04:26;-11.50;99.90
34985;DHT22;21190;58.750;17.004;2024-01-16T14:06:53;-11.50;99.90
34985;DHT22;21190;58.750;17.004;2024-01-16T14:09:38;-11.50;99.90
34985;DHT22;21190;58.750;17.004;2024-01-16T14:12:09;-11.50;99.90
34985;DHT22;21190;58.750;17.004;2024-01-16T14:14:36;-11.50;99.90
34985;DHT22;21190;58.750;17.004;2024-01-16T14:17:05;-11.60;99.90
34985;DHT22;21190;58.750;17.004;2024-01-16T14:19:36;-11.60;99.90
34985;DHT22;21190;58.750;17.004;2024-01-16T14:22:04;-11.60;99.90
34985;DHT22;21190;58.750;17.004;2024-01-16T14:24:31;-11.60;99.90
34985;DHT22;21190;58.750;17.004;2024-01-16T14:26:58;-11.70;99.90
34985;DHT22;21190;58.750;17.004;2024-01-16T14:29:26;-11.70;99.90
34985;DHT22;21190;58.750;17.004;2024-01-16T14:31:54;-11.70;99.90
34985;DHT22;21190;58.750;17.004;2024-01-16T14:34:25;-11.70;99.90
34985;DHT22;21190;58.750;17.004;2024-01-16T14:36:53;-11.80;99.90
34985;DHT22;21190;58.750;17.004;2024-01-16T14:39:21;-11.80;99.90
34985;DHT22;21190;58.750;17.004;2024-01-16T14:41:53;-11.80;99.90
34985;DHT22;21190;58.750;17.004;2024-01-16T14:44:21;-11.80;99.90
34985;DHT22;21190;58.750;17.004;2024-01-16T14:46:48;-11.80;99.90
34985;DHT22;21190;58.750;17.004;2024-01-16T14:49:19;-11.90;99.90
34985;DHT22;21190;58.750;17.004;2024-01-16T14:51:46;-12.00;99.90
34985;DHT22;21190;58.750;17.004;2024-01-16T14:54:14;-12.00;99.90
34985;DHT22;21190;58.750;17.004;2024-01-16T14:56:41;-12.10;99.90
34985;DHT22;21190;58.750;17.004;2024-01-16T14:59:08;-12.10;99.90
34985;DHT22;21190;58.750;17.004;2024-01-16T15:01:40;-12.20;99.90
34985;DHT22;21190;58.750;17.004;2024-01-16T15:04:08;-12.20;99.90
34985;DHT22;21190;58.750;17.004;2024-01-16T15:06:37;-12.20;99.90
34985;DHT22;21190;58.750;17.004;2024-01-16T15:09:04;-12.30;99.90
34985;DHT22;21190;58.750;17.004;2024-01-16T15:11:31;-12.30;99.90
34985;DHT22;21190;58.750;17.004;2024-01-16T15:13:58;-12.30;99.90
34985;DHT22;21190;58.750;17.004;2024-01-16T15:16:25;-12.30;99.90
34985;DHT22;21190;58.750;17.004;2024-01-16T15:18:54;-12.30;99.90
34985;DHT22;21190;58.750;17.004;2024-01-16T15:21:22;-12.30;99.90
34985;DHT22;21190;58.750;17.004;2024-01-16T15:23:49;-12.30;99.90